Stanley, NC (28164)

06:04 PM EDT del 29 Settembre 2016 (GMT -0400)
Mayberry road | | Change Station

Alt. 807 ft 35.38 °N, 81.12 °W | Updated 5 seconds ago

Scattered Clouds
Nubi sparse
81.5 °F
Sembra 85 °F
N
2.2
Vento Variabile Vento da ESE
Gusts 13.0 mph

Oggi
Massima -- | Minima -- °F
--% Possibilità di precip.
Ieri
Massima -- | Minima -- °F
Precip. -- in
Pressione 29.94 in
Visibilità 10.0 miglia
Nuvole Nubi sparse 10000 ft
Nubi sparse 12000 ft
Indice di calore 85 °F
Punto di rugiada 69 °F
Umidità 66%
Piovosità 0.00 in
Spessore del manto nevoso Non disponibile.
7:18 AM 7:10 PM
Luna calante, 1% visible
METAR KIPJ 292150Z AUTO 12004KT 10SM SCT100 SCT120 26/19 A2994 RMK AO2 T02560185
Pressione 29.94 in
Visibilità 10.0 miglia
Nuvole Nubi sparse 10000 ft
Nubi sparse 12000 ft
Indice di calore 85 °F
Punto di rugiada 69 °F
Umidità 66%
Piovosità 0.00 in
Spessore del manto nevoso Non disponibile.
7:18 AM 7:10 PM
Luna calante, 1% visible
METAR KIPJ 292150Z AUTO 12004KT 10SM SCT100 SCT120 26/19 A2994 RMK AO2 T02560185

10-Day Weather Forecast

Almanac

Astronomia

Sep. 29, 2016 Alba Tramonto
Ora attuale
Crepuscolo civile
Crepuscolo nautico
Crepuscolo astronomico
Luna
Estensione della luce visibile
Lunghezza del giorno
Tomorrow will be .
, % of the Moon is Illuminated

Gli estremi di oggi

State Highs State Lows

Community

WunderPhotos

Upload Photos

1,942,584 foto caricate!

WunderBlog® & News

Nearby

Qualità dell'aria

  Qualità dell'aria Indice AQ Inquinante
Not available.

Profondità neve

Stazione Profondità Altitudine

Attività sismica

Città  Distanza Mag. Data & Ora
Minimo Magnitudo Mostrato è 2.5.

Temperature delle acque costiere

Località Temperatura

Stations

Stazioni meteo nelle vicinanze

Ubicazione della stazione Temp. Raffreddamento del vento Punto di rugiada Umidità Vento Precip. Alt. Aggiornato Tipo
                   

Watches & Warnings

There are currently no watches in effect.